KCAV

Clarion Municipal Airport

Clarion, Iowa, USA
METAR KCAV 231115Z AUTO 34004KT 10SM CLR M02/M04 A3033 RMK AO2 PWINO
Observed Flight Rules
Oct-23 @ 11:15 UTC (35 minutes ago) Visual Flight Rules
Wind Visibility Clouds
340° at 4 knots 10 miles
  • Clear skies
Temperatures Readings
Current -2°C / 28°F
Dewpoint -4°C / 25°F
Humidity 86%
Altimeter 30.33" Hg
Pressure 1027 hPa
Elevation 354
METAR KCAV 231115Z AUTO 34004KT 10SM CLR M02/M04 A3033 RMK AO2 PWINO
Observed Flight Rules
Oct-23 @ 11:15 UTC
(35 minutes ago)
VFR
Wind Visibility
340° at 4 knots 10 miles
Clouds
  • Clear skies
Temperature Dewpoint
-2°C / 28°F -4°C / 25°F
Humidity Altimeter Pressure
86% 30.33" Hg 1027 hPa